Time;durP1;ratioP1;P1;durP2;ratioP2;P2;SDS_P1;SDS_P2;PMS_P1;PMS_P2;Temp;Humidity;BMP_temperature;BMP_pressure;BME280_temperature;BME280_humidity;BME280_pressure;Samples;Min_cycle;Max_cycle;Signal;HPM_P1;HPM_P2
2021/10/04 00:01:26;;;;;;;6.80;2.07;;;;;;;15.75;61.37;100864.91;5113055;28;20134;-72
2021/10/04 00:03:53;;;;;;;9.03;1.80;;;;;;;15.69;61.29;100871.81;5103706;28;20040;-72
2021/10/04 00:06:20;;;;;;;5.37;2.00;;;;;;;15.70;61.34;100875.44;5096842;28;20082;-75
2021/10/04 00:08:47;;;;;;;8.43;1.47;;;;;;;15.74;61.22;100887.75;5093268;28;20131;-72
2021/10/04 00:11:14;;;;;;;6.93;1.83;;;;;;;15.71;61.39;100894.84;5093037;28;20082;-72
2021/10/04 00:13:41;;;;;;;3.73;1.70;;;;;;;15.69;61.29;100897.13;5092388;28;20127;-68
2021/10/04 00:16:08;;;;;;;4.33;1.47;;;;;;;15.70;61.27;100887.53;5092492;28;20040;-67
2021/10/04 00:18:35;;;;;;;7.20;1.90;;;;;;;15.60;61.66;100877.25;5105900;28;20035;-72
2021/10/04 00:21:02;;;;;;;4.50;1.80;;;;;;;15.49;61.73;100866.47;5106277;28;20467;-68
2021/10/04 00:23:30;;;;;;;4.17;1.77;;;;;;;15.54;61.76;100897.34;5104555;28;20098;-67
2021/10/04 00:25:57;;;;;;;4.07;1.50;;;;;;;15.29;61.75;100854.38;5106060;28;20071;-67
2021/10/04 00:28:23;;;;;;;5.93;1.73;;;;;;;15.50;61.78;100885.84;5107608;28;20475;-68
2021/10/04 00:30:50;;;;;;;5.90;1.33;;;;;;;15.46;62.02;100892.41;5100264;28;20130;-67
2021/10/04 00:33:17;;;;;;;6.87;1.60;;;;;;;15.34;62.47;100896.50;5098485;28;20135;-73
2021/10/04 00:35:44;;;;;;;4.57;1.90;;;;;;;15.27;62.49;100895.22;5100274;28;20806;-75
2021/10/04 00:38:11;;;;;;;7.37;3.20;;;;;;;15.13;62.99;100889.50;5106272;28;20071;-76
2021/10/04 00:40:38;;;;;;;8.90;2.37;;;;;;;14.95;63.46;100865.03;5100071;28;20122;-80
2021/10/04 00:43:05;;;;;;;8.13;1.70;;;;;;;15.05;63.54;100891.03;5095275;28;20054;-80
2021/10/04 00:45:32;;;;;;;5.33;2.00;;;;;;;15.04;63.61;100888.50;5101003;28;20123;-71
2021/10/04 00:48:00;;;;;;;3.23;1.67;;;;;;;15.03;63.64;100886.84;5084299;28;20048;-69
2021/10/04 00:50:28;;;;;;;6.20;1.83;;;;;;;14.98;63.55;100881.28;5083794;28;20071;-70
2021/10/04 00:52:55;;;;;;;9.33;1.90;;;;;;;15.09;63.48;100905.31;5101539;28;20118;-71
2021/10/04 00:55:23;;;;;;;6.10;1.93;;;;;;;15.10;63.54;100895.72;5097411;28;20139;-76
2021/10/04 00:57:49;;;;;;;8.20;1.73;;;;;;;15.09;63.65;100900.53;5064415;28;20127;-72
2021/10/04 01:00:22;;;;;;;3.50;1.27;;;;;;;15.05;63.75;100901.44;5105775;28;20067;-70
2021/10/04 01:02:50;;;;;;;7.40;2.80;;;;;;;15.07;63.56;100916.84;5097251;28;20113;-70
2021/10/04 01:05:17;;;;;;;5.50;1.40;;;;;;;15.00;63.46;100890.25;5113814;27;20054;-66
2021/10/04 01:07:44;;;;;;;6.50;1.67;;;;;;;15.09;63.53;100908.97;5094425;28;20128;-71
2021/10/04 01:10:12;;;;;;;8.83;1.67;;;;;;;15.05;63.72;100904.25;5099466;28;20123;-72
2021/10/04 01:12:45;;;;;;;5.47;1.40;;;;;;;14.85;63.95;100880.88;5112465;28;20126;-70
2021/10/04 01:15:14;;;;;;;1.23;0.67;;;;;;;14.94;64.00;100892.31;5104648;28;20068;-70
2021/10/04 01:17:41;;;;;;;2.00;1.20;;;;;;;14.76;64.72;100873.41;5102038;28;20079;-67
2021/10/04 01:20:13;;;;;;;6.73;1.27;;;;;;;14.74;64.82;100887.78;5111446;28;20131;-68
2021/10/04 01:22:41;;;;;;;4.23;0.90;;;;;;;14.74;64.73;100884.97;5101977;28;20135;-67
2021/10/04 01:25:10;;;;;;;4.00;1.53;;;;;;;14.81;64.73;100893.88;5077561;28;20098;-68
2021/10/04 01:27:40;;;;;;;3.97;1.40;;;;;;;14.81;64.66;100893.88;5097210;28;20123;-66
2021/10/04 01:30:09;;;;;;;4.03;1.60;;;;;;;14.77;64.67;100887.19;5099490;28;20128;-65
2021/10/04 01:32:37;;;;;;;4.87;1.50;;;;;;;14.79;64.63;100893.31;5103252;28;20119;-72
2021/10/04 01:35:04;;;;;;;1.67;1.40;;;;;;;14.76;64.66;100887.47;5105610;28;20122;-68
2021/10/04 01:37:31;;;;;;;2.70;1.20;;;;;;;14.76;64.84;100902.38;5097261;28;20161;-69
2021/10/04 01:39:58;;;;;;;4.30;1.30;;;;;;;14.83;64.54;100894.41;5103820;28;20071;-69
2021/10/04 01:42:25;;;;;;;3.30;1.30;;;;;;;14.75;64.95;100894.25;5099825;28;20083;-69
2021/10/04 01:44:52;;;;;;;1.33;0.63;;;;;;;14.70;64.96;100886.72;5098527;28;20131;-69
2021/10/04 01:47:19;;;;;;;6.47;1.13;;;;;;;14.64;65.07;100885.09;5101538;28;20079;-70
2021/10/04 01:49:46;;;;;;;4.23;1.33;;;;;;;14.69;65.01;100879.41;5095946;28;20131;-70
2021/10/04 01:52:14;;;;;;;5.80;1.10;;;;;;;14.76;64.99;100881.84;5111301;27;20127;-69
2021/10/04 01:54:41;;;;;;;2.77;1.13;;;;;;;14.76;65.02;100879.88;5095199;28;20130;-68
2021/10/04 01:57:08;;;;;;;5.63;1.20;;;;;;;14.84;64.64;100884.84;5106506;28;20138;-68
2021/10/04 01:59:35;;;;;;;3.27;1.40;;;;;;;14.89;64.64;100879.13;5100206;28;20123;-69
2021/10/04 02:02:03;;;;;;;4.17;1.40;;;;;;;14.86;64.67;100890.97;5092683;28;20156;-69
2021/10/04 02:04:30;;;;;;;5.10;1.43;;;;;;;14.95;64.43;100887.53;5106633;28;20312;-70
2021/10/04 02:06:57;;;;;;;5.23;1.53;;;;;;;14.96;63.97;100872.31;5107493;27;20076;-69
2021/10/04 02:09:24;;;;;;;6.53;1.37;;;;;;;14.85;64.16;100860.38;5095656;28;20451;-69
2021/10/04 02:11:51;;;;;;;5.23;1.33;;;;;;;14.99;64.03;100877.34;5084606;28;20090;-70
2021/10/04 02:14:18;;;;;;;9.60;1.30;;;;;;;14.84;64.11;100853.09;5101287;28;20131;-69
2021/10/04 02:16:45;;;;;;;4.13;1.47;;;;;;;14.86;64.12;100851.63;5084625;28;20157;-68
2021/10/04 02:19:13;;;;;;;3.63;1.77;;;;;;;14.87;64.07;100861.75;5107344;28;20079;-68
2021/10/04 02:21:41;;;;;;;1.97;1.10;;;;;;;14.89;63.99;100861.44;5104588;28;20109;-73
2021/10/04 02:24:09;;;;;;;7.57;1.43;;;;;;;14.87;63.91;100858.94;5099637;28;20048;-72
2021/10/04 02:26:36;;;;;;;15.67;1.57;;;;;;;14.78;63.98;100849.50;5094816;28;20050;-71
2021/10/04 02:29:03;;;;;;;7.70;1.70;;;;;;;14.83;63.98;100846.59;5109639;28;20120;-71
2021/10/04 02:31:30;;;;;;;6.53;1.40;;;;;;;14.84;64.24;100853.91;5099905;28;20076;-72
2021/10/04 02:33:57;;;;;;;2.70;1.10;;;;;;;14.83;64.17;100846.59;5093198;28;20036;-68
2021/10/04 02:36:24;;;;;;;3.53;1.20;;;;;;;14.66;64.32;100824.63;5111731;27;20127;-70
2021/10/04 02:38:51;;;;;;;8.33;1.67;;;;;;;14.64;64.61;100826.06;5099081;28;20157;-70
2021/10/04 02:41:19;;;;;;;4.07;0.87;;;;;;;14.50;64.77;100819.50;5093262;28;20170;-70
2021/10/04 02:43:46;;;;;;;4.63;1.53;;;;;;;14.61;64.94;100840.72;5108195;28;20126;-70
2021/10/04 02:46:13;;;;;;;2.47;1.10;;;;;;;14.62;64.98;100853.63;5098153;28;20044;-70
2021/10/04 02:48:40;;;;;;;2.80;1.23;;;;;;;14.67;64.62;100871.28;5102699;28;20044;-70
2021/10/04 02:51:07;;;;;;;8.67;2.60;;;;;;;14.68;64.69;100855.25;5104518;28;20127;-69
2021/10/04 02:53:34;;;;;;;5.83;1.40;;;;;;;14.54;65.14;100851.50;5077915;28;20103;-70
2021/10/04 02:56:01;;;;;;;3.33;1.40;;;;;;;14.45;65.53;100859.72;5104906;28;20563;-70
2021/10/04 02:58:27;;;;;;;1.43;1.03;;;;;;;14.29;65.46;100849.78;5092613;28;20078;-72
2021/10/04 03:00:54;;;;;;;2.47;1.07;;;;;;;14.45;65.52;100874.59;5096236;28;20048;-71
2021/10/04 03:03:21;;;;;;;5.77;1.23;;;;;;;14.40;65.40;100865.41;5073603;28;20113;-71
2021/10/04 03:05:48;;;;;;;6.10;1.17;;;;;;;14.29;65.41;100847.84;5096485;28;20146;-70
2021/10/04 03:08:15;;;;;;;6.17;1.90;;;;;;;14.41;65.41;100862.28;5100510;28;20564;-70
2021/10/04 03:10:42;;;;;;;5.57;1.10;;;;;;;14.47;65.58;100860.25;5098494;28;20067;-70
2021/10/04 03:13:10;;;;;;;3.43;0.90;;;;;;;14.46;65.61;100870.66;5107245;28;20142;-69
2021/10/04 03:15:36;;;;;;;5.73;2.00;;;;;;;14.50;65.55;100878.50;5105095;28;20118;-72
2021/10/04 03:18:04;;;;;;;4.50;1.07;;;;;;;14.57;65.27;100876.19;5107338;28;20567;-72
2021/10/04 03:20:31;;;;;;;2.87;1.30;;;;;;;14.53;65.09;100856.28;5102472;28;20536;-71
2021/10/04 03:22:58;;;;;;;3.77;1.23;;;;;;;14.60;65.02;100861.53;5095349;28;20127;-71
2021/10/04 03:25:25;;;;;;;4.17;1.40;;;;;;;14.61;65.04;100864.03;5095477;28;20075;-70
2021/10/04 03:27:52;;;;;;;5.57;0.97;;;;;;;14.57;64.97;100862.16;5091985;28;20036;-69
2021/10/04 03:30:19;;;;;;;5.47;1.87;;;;;;;14.64;64.96;100877.50;5102367;28;20127;-71
2021/10/04 03:32:46;;;;;;;2.33;1.00;;;;;;;14.66;64.71;100874.38;5109704;28;20118;-68
2021/10/04 03:35:13;;;;;;;1.90;0.93;;;;;;;14.53;64.90;100861.03;5109278;28;20097;-67
2021/10/04 03:37:40;;;;;;;7.83;0.93;;;;;;;14.60;65.10;100869.97;5111377;28;20126;-67
2021/10/04 03:40:09;;;;;;;11.07;1.37;;;;;;;14.50;65.42;100865.31;5094892;28;20079;-65
2021/10/04 03:42:36;;;;;;;2.50;1.40;;;;;;;14.57;65.25;100874.22;5096603;28;20138;-67
2021/10/04 03:45:04;;;;;;;5.50;1.70;;;;;;;14.56;65.19;100880.13;5102913;28;20543;-63
2021/10/04 03:47:31;;;;;;;6.50;1.33;;;;;;;14.60;65.35;100886.84;5107737;28;20138;-67
2021/10/04 03:49:57;;;;;;;4.17;1.30;;;;;;;14.68;64.92;100895.44;5098980;28;20040;-68
2021/10/04 03:52:24;;;;;;;3.07;1.30;;;;;;;14.38;64.93;100837.59;5099902;28;20123;-67
2021/10/04 03:54:51;;;;;;;3.60;1.17;;;;;;;14.76;64.95;100879.88;5112401;28;20128;-66
2021/10/04 03:57:18;;;;;;;9.50;1.43;;;;;;;14.80;64.78;100878.16;5107660;28;20990;-67
2021/10/04 03:59:45;;;;;;;3.13;2.40;;;;;;;14.76;64.82;100891.13;5099825;28;20118;-67
2021/10/04 04:02:12;;;;;;;5.97;1.40;;;;;;;14.73;65.03;100891.72;5098382;28;20075;-80
2021/10/04 04:04:39;;;;;;;5.53;1.50;;;;;;;14.76;64.84;100891.13;5102981;28;20079;-68
2021/10/04 04:07:07;;;;;;;3.17;1.30;;;;;;;14.70;65.18;100895.16;5108829;28;20046;-68
2021/10/04 04:09:35;;;;;;;6.33;1.30;;;;;;;14.75;65.04;100906.31;5097997;28;20082;-68
2021/10/04 04:12:02;;;;;;;6.33;1.57;;;;;;;14.64;64.52;100873.84;5101746;28;20043;-69
2021/10/04 04:14:29;;;;;;;11.50;1.80;;;;;;;14.97;64.29;100908.56;5095635;28;20123;-70
2021/10/04 04:16:56;;;;;;;4.40;1.90;;;;;;;15.16;64.42;100933.91;5100206;27;20539;-68
2021/10/04 04:19:23;;;;;;;6.93;1.10;;;;;;;15.33;63.87;100922.16;5093650;28;20071;-70
2021/10/04 04:21:50;;;;;;;7.77;1.80;;;;;;;15.45;63.83;100932.94;5075890;28;20127;-69
2021/10/04 04:24:17;;;;;;;9.30;1.63;;;;;;;15.37;63.81;100912.78;5106740;28;20102;-76
2021/10/04 04:26:45;;;;;;;8.27;2.13;;;;;;;15.51;63.84;100912.03;5099035;28;20529;-75
2021/10/04 04:29:12;;;;;;;5.57;2.07;;;;;;;15.49;63.94;100911.50;5093938;28;20141;-75
2021/10/04 04:31:39;;;;;;;9.40;2.40;;;;;;;15.39;64.24;100910.50;5096768;28;20395;-75
2021/10/04 04:34:06;;;;;;;4.00;1.60;;;;;;;15.30;64.82;100915.13;5105783;28;20086;-74
2021/10/04 04:36:33;;;;;;;5.43;2.77;;;;;;;15.13;64.86;100897.94;5101304;28;20123;-75
2021/10/04 04:39:00;;;;;;;7.13;1.33;;;;;;;15.15;65.42;100904.13;5101947;27;20123;-73
2021/10/04 04:41:27;;;;;;;2.23;1.30;;;;;;;14.99;66.62;100902.66;5096887;28;20135;-73
2021/10/04 04:43:54;;;;;;;7.50;1.87;;;;;;;14.92;67.39;100906.66;5093007;28;20462;-71
2021/10/04 04:46:20;;;;;;;7.00;2.13;;;;;;;14.80;67.69;100903.47;5102862;28;20594;-72
2021/10/04 04:48:48;;;;;;;7.03;2.27;;;;;;;14.83;67.68;100914.06;5109662;28;20047;-74
2021/10/04 04:51:14;;;;;;;4.37;1.77;;;;;;;14.82;67.48;100901.16;5106175;28;20614;-72
2021/10/04 04:53:41;;;;;;;8.73;2.17;;;;;;;14.73;68.38;100908.56;5109754;28;20071;-71
2021/10/04 04:56:09;;;;;;;4.53;2.00;;;;;;;14.73;68.28;100919.81;5093407;28;20071;-67
2021/10/04 04:58:36;;;;;;;9.33;2.30;;;;;;;14.77;68.20;100920.94;5102569;28;20502;-69
2021/10/04 05:01:04;;;;;;;6.33;2.23;;;;;;;14.61;67.76;100891.31;5100099;28;20436;-68
2021/10/04 05:03:31;;;;;;;5.73;1.83;;;;;;;14.82;67.95;100929.28;5095108;28;20141;-67
2021/10/04 05:05:58;;;;;;;4.97;1.47;;;;;;;14.72;68.36;100909.72;5096718;28;20072;-62
2021/10/04 05:08:25;;;;;;;6.23;1.93;;;;;;;14.73;68.05;100919.81;5105711;28;20134;-72
2021/10/04 05:10:52;;;;;;;8.53;2.63;;;;;;;14.75;68.29;100920.38;5110966;28;20126;-68
2021/10/04 05:13:19;;;;;;;8.53;1.87;;;;;;;14.72;68.39;100918.16;5106899;28;20171;-63
2021/10/04 05:15:45;;;;;;;4.00;1.43;;;;;;;14.73;68.32;100922.63;5093672;28;20127;-69
2021/10/04 05:18:12;;;;;;;5.03;1.30;;;;;;;14.74;68.26;100918.72;5105364;28;20574;-69
2021/10/04 05:20:39;;;;;;;8.93;2.53;;;;;;;14.60;68.29;100910.16;5110271;28;20494;-66
2021/10/04 05:23:06;;;;;;;5.03;1.63;;;;;;;14.61;68.68;100909.00;5107455;27;20130;-63
2021/10/04 05:25:33;;;;;;;3.80;1.10;;;;;;;14.60;69.00;100914.94;5108581;27;20124;-64
2021/10/04 05:28:00;;;;;;;4.67;1.50;;;;;;;14.57;69.11;100932.41;5114713;28;20174;-64
2021/10/04 05:30:27;;;;;;;3.37;1.07;;;;;;;14.43;69.52;100926.63;5099885;28;20422;-64
2021/10/04 05:32:54;;;;;;;5.87;1.77;;;;;;;14.40;69.50;100942.09;5105577;28;20044;-66
2021/10/04 05:35:21;;;;;;;4.73;1.37;;;;;;;14.41;69.43;100949.38;5111183;28;20071;-63
2021/10/04 05:37:49;;;;;;;4.97;1.60;;;;;;;14.40;69.29;100947.72;5100666;27;20074;-64
2021/10/04 05:40:16;;;;;;;9.63;2.27;;;;;;;14.41;69.23;100952.19;5108476;28;20079;-63
2021/10/04 05:42:43;;;;;;;7.53;1.67;;;;;;;14.33;69.21;100937.97;5110324;28;20142;-65
2021/10/04 05:45:13;;;;;;;6.73;2.30;;;;;;;14.35;69.51;100935.69;5093603;28;20090;-67
2021/10/04 05:47:41;;;;;;;3.00;1.50;;;;;;;14.30;69.46;100945.00;5094028;28;20467;-64
2021/10/04 05:50:09;;;;;;;6.50;2.00;;;;;;;14.26;69.70;100949.56;5102617;28;20075;-62
2021/10/04 05:52:36;;;;;;;11.40;2.23;;;;;;;14.21;69.91;100955.19;5095409;28;20167;-64
2021/10/04 05:55:04;;;;;;;3.30;1.30;;;;;;;14.17;70.06;100956.94;5106342;28;20082;-61
2021/10/04 05:57:31;;;;;;;10.03;2.20;;;;;;;13.78;70.30;100901.69;5093994;28;20072;-61
2021/10/04 05:59:58;;;;;;;4.90;1.20;;;;;;;14.10;70.51;100953.63;5099375;28;20507;-61
2021/10/04 06:02:25;;;;;;;2.90;1.17;;;;;;;14.04;70.72;100947.22;5096563;28;20451;-61
2021/10/04 06:04:52;;;;;;;2.30;1.03;;;;;;;13.97;71.03;100947.53;5103277;28;20056;-62
2021/10/04 06:07:19;;;;;;;11.23;1.63;;;;;;;13.82;71.44;100925.22;5095802;28;20083;-61
2021/10/04 06:09:46;;;;;;;7.63;1.80;;;;;;;13.87;71.41;100929.94;5105221;27;20086;-62
2021/10/04 06:12:12;;;;;;;5.43;1.13;;;;;;;13.87;71.61;100936.41;5104054;28;20123;-62
2021/10/04 06:14:39;;;;;;;4.93;1.50;;;;;;;13.81;71.85;100943.22;5093166;28;20130;-62
2021/10/04 06:17:06;;;;;;;4.07;1.40;;;;;;;13.74;72.12;100948.28;5102132;28;20139;-62
2021/10/04 06:19:33;;;;;;;1.93;0.80;;;;;;;13.65;72.32;100933.22;5092059;28;20545;-62
2021/10/04 06:22:00;;;;;;;2.70;1.00;;;;;;;13.52;72.83;100943.13;5095954;28;20776;-62
2021/10/04 06:24:27;;;;;;;4.90;1.43;;;;;;;13.57;72.77;100950.66;5106092;27;20138;-62
2021/10/04 06:26:53;;;;;;;6.73;2.23;;;;;;;13.62;72.67;100950.66;5099028;28;20068;-63
2021/10/04 06:29:20;;;;;;;1.90;1.47;;;;;;;13.64;72.84;100962.41;5108102;28;20036;-63
2021/10/04 06:31:47;;;;;;;4.60;1.23;;;;;;;13.67;72.79;100962.66;5105902;27;20436;-63
2021/10/04 06:34:14;;;;;;;1.50;1.07;;;;;;;13.70;72.79;100961.25;5110187;28;20059;-60
2021/10/04 06:36:41;;;;;;;1.53;0.93;;;;;;;13.66;73.02;100957.34;5104939;28;20036;-65
2021/10/04 06:39:07;;;;;;;3.50;1.10;;;;;;;13.63;72.92;100955.13;5110905;28;20128;-67
2021/10/04 06:41:34;;;;;;;13.87;2.37;;;;;;;13.70;73.12;100967.69;5107525;28;20078;-64
2021/10/04 06:44:01;;;;;;;9.67;1.57;;;;;;;13.84;72.86;100961.41;5099482;28;20206;-66
2021/10/04 06:46:28;;;;;;;4.77;0.93;;;;;;;13.97;72.62;100966.38;5107435;28;20417;-66
2021/10/04 06:48:55;;;;;;;1.50;1.17;;;;;;;14.06;72.44;100972.19;5105133;28;20044;-62
2021/10/04 06:51:21;;;;;;;4.27;1.60;;;;;;;14.10;72.42;100964.88;5085669;28;20647;-64
2021/10/04 06:53:48;;;;;;;3.23;1.33;;;;;;;14.07;72.40;100965.44;5115594;27;20124;-63
2021/10/04 06:56:15;;;;;;;3.53;1.63;;;;;;;14.07;72.21;100963.47;5086215;28;20126;-64
2021/10/04 06:58:42;;;;;;;6.67;1.20;;;;;;;13.83;72.36;100949.34;5098999;28;20083;-65
2021/10/04 07:01:10;;;;;;;4.63;1.30;;;;;;;14.08;72.03;100958.69;5095997;28;20043;-65
2021/10/04 07:03:37;;;;;;;9.77;1.50;;;;;;;14.20;71.85;100974.03;5106539;27;20533;-66
2021/10/04 07:06:04;;;;;;;3.20;1.33;;;;;;;14.36;71.64;100983.16;5107693;27;20073;-66
2021/10/04 07:08:31;;;;;;;2.77;1.40;;;;;;;14.51;71.43;100981.38;5108005;27;20475;-65
2021/10/04 07:10:58;;;;;;;5.23;1.63;;;;;;;14.61;71.20;100979.28;5107488;28;20127;-66
2021/10/04 07:13:24;;;;;;;6.37;1.70;;;;;;;14.56;70.94;100970.88;5112615;28;20522;-64
2021/10/04 07:15:51;;;;;;;3.87;1.77;;;;;;;14.72;71.00;100990.41;5104254;28;20040;-65
2021/10/04 07:18:18;;;;;;;3.63;2.17;;;;;;;14.70;70.57;100968.25;5105401;28;20067;-64
2021/10/04 07:20:45;;;;;;;8.50;3.73;;;;;;;14.88;70.38;100994.75;5105244;28;20130;-65
2021/10/04 07:23:12;;;;;;;16.67;6.53;;;;;;;14.91;70.45;100983.72;5090395;28;20075;-64
2021/10/04 07:25:39;;;;;;;14.37;9.33;;;;;;;14.98;69.93;100976.91;5112046;28;20142;-66
2021/10/04 07:28:07;;;;;;;12.17;8.77;;;;;;;14.93;70.17;100975.81;5112210;28;20079;-66
2021/10/04 07:30:35;;;;;;;16.37;9.63;;;;;;;15.03;69.96;100985.28;5098601;28;20139;-66
2021/10/04 07:33:03;;;;;;;13.93;8.70;;;;;;;14.84;69.67;100941.06;5094451;28;20036;-66
2021/10/04 07:35:31;;;;;;;9.43;4.70;;;;;;;15.09;69.45;100989.72;5107323;28;20048;-65
2021/10/04 07:37:59;;;;;;;4.97;2.50;;;;;;;14.99;69.75;100996.28;5100255;28;20051;-65
2021/10/04 07:40:27;;;;;;;4.70;1.60;;;;;;;14.93;69.96;100989.88;5094366;28;20127;-66
2021/10/04 07:42:54;;;;;;;4.83;2.33;;;;;;;14.97;69.86;100963.97;5091623;28;20054;-65
2021/10/04 07:45:21;;;;;;;7.57;2.30;;;;;;;15.14;69.61;100981.19;5088318;28;20501;-66
2021/10/04 07:47:48;;;;;;;9.43;2.60;;;;;;;15.15;69.59;100986.53;5109110;28;20040;-66
2021/10/04 07:50:15;;;;;;;4.53;1.80;;;;;;;15.36;69.28;100975.84;5102740;28;20063;-65
2021/10/04 07:52:44;;;;;;;4.23;1.60;;;;;;;15.44;68.82;100974.31;5097948;28;20075;-65
2021/10/04 07:55:11;;;;;;;3.83;1.40;;;;;;;15.39;68.63;100963.16;5096723;28;20462;-65
2021/10/04 07:57:38;;;;;;;9.10;2.10;;;;;;;15.58;68.40;100978.03;5092856;28;20067;-65
2021/10/04 08:00:07;;;;;;;5.80;2.07;;;;;;;15.74;68.00;100992.78;5112080;28;20079;-65
2021/10/04 08:02:36;;;;;;;5.77;1.73;;;;;;;15.59;68.16;100984.53;5091631;28;20052;-65
2021/10/04 08:05:06;;;;;;;2.90;1.53;;;;;;;15.62;68.08;100987.59;5099468;28;20051;-66
2021/10/04 08:07:33;;;;;;;5.43;2.58;;;;;;;15.83;67.83;101013.50;5106167;28;20287;-66
2021/10/04 08:10:06;;;;;;;6.57;1.67;;;;;;;15.75;67.43;101000.06;5111343;28;20056;-66
2021/10/04 08:12:33;;;;;;;16.58;2.17;;;;;;;16.01;67.13;101027.88;5101324;28;20075;-66
2021/10/04 08:15:00;;;;;;;5.22;2.22;;;;;;;16.08;67.02;101028.31;5100808;28;20550;-65
2021/10/04 08:17:27;;;;;;;5.28;1.95;;;;;;;16.31;66.61;101038.63;5100527;28;20135;-66
2021/10/04 08:19:54;;;;;;;5.45;2.63;;;;;;;16.54;66.42;101050.06;5079600;28;20044;-66
2021/10/04 08:22:21;;;;;;;5.30;2.05;;;;;;;16.69;65.91;101061.09;5090351;28;20131;-66
2021/10/04 08:24:48;;;;;;;4.45;1.90;;;;;;;16.86;65.52;101066.19;5110968;28;20134;-66
2021/10/04 08:27:15;;;;;;;6.63;2.40;;;;;;;16.83;65.54;101049.06;5104533;28;20426;-65
2021/10/04 08:29:42;;;;;;;9.85;2.20;;;;;;;16.91;65.17;101049.16;5097009;28;20123;-66
2021/10/04 08:32:13;;;;;;;5.32;2.05;;;;;;;16.89;65.45;101048.66;5094561;28;20047;-65
2021/10/04 08:34:39;;;;;;;9.02;2.13;;;;;;;16.97;65.12;101056.38;5097916;28;20070;-66
2021/10/04 08:37:06;;;;;;;11.55;2.75;;;;;;;17.02;65.03;101072.34;5097674;28;20036;-66
2021/10/04 08:39:33;;;;;;;5.75;2.30;;;;;;;17.04;65.27;101055.97;5101465;28;20090;-66
2021/10/04 08:42:01;;;;;;;5.78;2.42;;;;;;;17.25;65.66;101065.69;5098231;28;20046;-66
2021/10/04 08:44:30;;;;;;;4.07;2.00;;;;;;;17.40;65.21;101063.69;5103881;28;20078;-66
2021/10/04 08:46:57;;;;;;;13.77;3.15;;;;;;;17.33;65.06;101055.66;5100264;27;20508;-66
2021/10/04 08:49:26;;;;;;;6.85;2.28;;;;;;;17.39;65.42;101076.16;5101353;28;20487;-65
2021/10/04 08:51:53;;;;;;;9.57;2.30;;;;;;;17.26;65.65;101055.25;5099623;28;20454;-66
2021/10/04 08:54:25;;;;;;;10.88;2.55;;;;;;;17.11;65.85;101062.03;5112711;28;20541;-66
2021/10/04 08:56:54;;;;;;;8.25;2.63;;;;;;;16.72;66.48;101054.84;5103432;28;20067;-66
2021/10/04 08:59:20;;;;;;;12.70;3.65;;;;;;;16.67;67.14;101068.19;5103007;28;20039;-66
2021/10/04 09:01:47;;;;;;;9.38;1.95;;;;;;;16.66;67.41;101070.19;5096105;27;20567;-65
2021/10/04 09:04:21;;;;;;;11.10;2.72;;;;;;;16.70;67.35;101059.94;5096298;28;20488;-67
2021/10/04 09:06:48;;;;;;;7.63;2.13;;;;;;;16.86;67.65;101059.72;5099474;28;20039;-66
2021/10/04 09:09:15;;;;;;;6.53;1.88;;;;;;;16.92;67.71;101053.66;5097972;28;20067;-66
2021/10/04 09:11:44;;;;;;;11.68;2.90;;;;;;;17.11;67.74;101056.38;5094615;28;20476;-67
2021/10/04 09:14:30;;;;;;;4.55;1.35;;;;;;;17.23;67.60;101059.53;5104296;28;20102;-65
2021/10/04 09:17:03;;;;;;;7.53;1.85;;;;;;;17.39;67.72;101059.22;5106995;28;20067;-66
2021/10/04 09:19:30;;;;;;;2.60;1.65;;;;;;;17.48;67.86;101060.16;5096725;28;20076;-66
2021/10/04 09:22:15;;;;;;;6.75;1.38;;;;;;;17.41;67.92;101043.66;5095705;28;20470;-66
2021/10/04 09:24:48;;;;;;;5.95;1.50;;;;;;;17.55;67.38;101039.97;5101363;28;20079;-67
2021/10/04 09:27:44;;;;;;;3.08;1.02;;;;;;;17.68;67.29;101039.94;5112066;28;20442;-66
2021/10/04 09:30:22;;;;;;;10.32;2.40;;;;;;;17.93;67.26;101038.56;5078968;28;20075;-67
2021/10/04 09:32:52;;;;;;;3.30;1.55;;;;;;;18.56;66.88;101008.41;5097851;28;20064;-66
2021/10/04 09:35:32;;;;;;;7.53;2.15;;;;;;;19.47;66.01;101026.00;5097132;28;20089;-66
2021/10/04 09:37:59;;;;;;;7.30;1.95;;;;;;;20.61;64.76;101039.13;5104934;28;20075;-67
2021/10/04 09:40:34;;;;;;;5.70;1.70;;;;;;;21.24;63.57;101024.06;5108757;28;20059;-66
2021/10/04 09:43:04;;;;;;;4.35;2.28;;;;;;;21.73;62.11;101023.63;5098735;28;20118;-67
2021/10/04 09:45:32;;;;;;;8.15;1.45;;;;;;;22.18;61.53;101035.19;5099193;28;20135;-67
2021/10/04 09:48:12;;;;;;;4.30;1.65;;;;;;;22.55;61.22;101020.28;5104288;28;20126;-67
2021/10/04 09:50:41;;;;;;;5.82;1.98;;;;;;;23.39;59.86;101015.94;5093517;28;20040;-67
2021/10/04 09:53:12;;;;;;;4.30;1.48;;;;;;;23.96;57.80;101021.84;5096199;28;20076;-68
2021/10/04 09:55:41;;;;;;;7.20;1.98;;;;;;;24.04;57.42;101018.84;5095260;28;20139;-67
2021/10/04 09:58:19;;;;;;;6.35;2.55;;;;;;;24.04;54.92;101006.63;5099075;28;20122;-65
2021/10/04 10:00:50;;;;;;;;;;;;;;;24.11;57.27;101019.06;5105847;28;20043;-66
2021/10/04 10:03:19;;;;;;;4.18;1.80;;;;;;;24.05;55.33;100974.88;5108348;28;19924;-66
2021/10/04 10:05:50;;;;;;;7.65;2.00;;;;;;;24.11;54.24;101007.66;5121425;27;20081;-65
2021/10/04 10:08:20;;;;;;;4.63;1.90;;;;;;;24.33;53.40;101016.84;5103584;27;20118;-67
2021/10/04 10:10:48;;;;;;;4.68;1.70;;;;;;;24.59;52.68;101016.41;5082234;28;20058;-66
2021/10/04 10:13:17;;;;;;;4.00;1.33;;;;;;;24.65;52.18;101009.25;5093493;28;20127;-67
2021/10/04 10:15:56;;;;;;;5.68;1.77;;;;;;;24.59;52.14;101005.81;5093882;28;20048;-67
2021/10/04 10:18:29;;;;;;;6.28;2.00;;;;;;;24.86;51.52;100985.31;5098081;28;20107;-66
2021/10/04 10:20:59;;;;;;;6.68;2.33;;;;;;;25.58;50.00;101008.81;5105844;28;20079;-67
2021/10/04 10:23:48;;;;;;;8.13;2.15;;;;;;;26.05;49.75;101009.91;5104422;28;20079;-67
2021/10/04 10:26:58;;;;;;;5.70;1.83;;;;;;;26.36;48.93;101018.38;5100783;28;20120;-66
2021/10/04 10:29:30;;;;;;;8.70;2.53;;;;;;;26.30;47.16;101021.91;5095479;28;20050;-67
2021/10/04 10:31:57;;;;;;;7.18;2.45;;;;;;;26.36;47.00;101028.97;5094428;28;20122;-68
2021/10/04 10:34:30;;;;;;;4.90;2.30;;;;;;;26.43;46.56;101029.13;5096848;28;20147;-67
2021/10/04 10:36:57;;;;;;;5.88;2.70;;;;;;;26.36;45.81;101046.16;5100141;28;20094;-67
2021/10/04 10:39:46;;;;;;;7.55;2.53;;;;;;;25.85;46.58;101020.50;5102913;28;20079;-66
2021/10/04 10:42:46;;;;;;;7.57;2.95;;;;;;;25.46;47.62;101020.34;5114848;27;20087;-66
2021/10/04 10:45:15;;;;;;;6.90;2.10;;;;;;;25.63;47.12;101017.09;5090389;28;20140;-67
2021/10/04 10:47:49;;;;;;;5.47;2.00;;;;;;;26.09;46.60;101025.97;5100473;28;20075;-67
2021/10/04 10:50:33;;;;;;;11.27;3.75;;;;;;;25.60;46.96;101009.25;5100666;27;20118;-67
2021/10/04 10:53:00;;;;;;;6.15;2.20;;;;;;;25.73;46.87;101019.38;5111426;27;20075;-68
2021/10/04 10:55:34;;;;;;;5.15;2.20;;;;;;;25.31;46.68;101015.50;5102759;28;20640;-68
2021/10/04 10:58:15;;;;;;;8.20;2.53;;;;;;;24.52;47.25;101004.78;5104251;28;20054;-67
2021/10/04 11:00:51;;;;;;;8.32;2.42;;;;;;;24.21;47.92;101008.34;5104129;28;20044;-66
2021/10/04 11:03:20;;;;;;;5.20;1.88;;;;;;;24.30;47.91;100989.84;5109445;28;20051;-67
2021/10/04 11:05:54;;;;;;;5.70;1.83;;;;;;;23.75;48.83;101000.00;5099279;28;20138;-67
2021/10/04 11:08:29;;;;;;;2.70;1.40;;;;;;;23.51;48.55;100960.13;5091976;28;20044;-66
2021/10/04 11:10:56;;;;;;;4.18;1.77;;;;;;;23.97;48.88;101009.25;5096182;28;20149;-67
2021/10/04 11:13:33;;;;;;;3.17;1.35;;;;;;;24.42;48.06;101005.31;5098459;28;20051;-66
2021/10/04 11:16:06;;;;;;;3.30;1.35;;;;;;;25.35;47.24;101005.78;5096366;28;20077;-67
2021/10/04 11:18:44;;;;;;;6.13;1.63;;;;;;;25.41;46.14;101014.94;5106026;28;20044;-67
2021/10/04 11:21:14;;;;;;;4.97;2.00;;;;;;;25.51;45.84;101017.22;5096429;28;20139;-67
2021/10/04 11:23:46;;;;;;;4.20;1.40;;;;;;;26.22;43.63;101016.03;5098563;28;20046;-66
2021/10/04 11:26:18;;;;;;;6.63;1.77;;;;;;;26.52;43.38;101009.69;5097404;28;20044;-66
2021/10/04 11:28:49;;;;;;;7.45;1.70;;;;;;;27.47;42.05;101002.44;5093005;28;20051;-68
2021/10/04 11:31:19;;;;;;;2.95;1.25;;;;;;;28.31;40.43;101007.78;5090440;28;20132;-67